• Join FlightAware (Why Join?)
  • Login
  • US Flag GB Flag 
16:36 EST


 

Airport Tracker/Info


-or-


 

Live Flight TrackerFlight Track Log ✈ SWA2122 ✈ 06-Apr-2013 ✈ KBWI - KBNA

Flight Track Log - Related Links

Times and Time Zones

All times are in EDT time to prevent confusion due to time zone crossing. See the SWA2122 flight status page for this flight to view local times or setup timezone preferences in your user account.

Time Position Orientation Groundspeed Altitude Reporting Facility
EDT Latitude Longitude Course Direction KTS MPH feet Rate Location/Type
08:51 39.1833 -76.7667 211° Southwest 214 246 3,000  Level Potomac TRACON
08:52 39.2000 -76.8500 284° West 251 289 5,500 3,240 Climbing Potomac TRACON
08:53 39.2000 -76.9333 270° West 263 303 9,200 2,760 Climbing Potomac TRACON
08:54 39.2000 -77.0333 270° West 281 323 11,100 2,100 Climbing Potomac TRACON
08:55 39.2000 -77.1333 270° West 330 380 13,300 2,280 Climbing Potomac TRACON
08:57 39.0521 -77.2687 211° Southwest  Level FlightAware Approximate
08:57 39.0903 -77.3514 237° Southwest 352 405 18,000  Level Washington Center
08:58 39.0572 -77.4733 251° West 357 411 20,000 2,100 Climbing Washington Center
08:59 39.0236 -77.6036 252° West 380 437 22,200 1,800 Climbing Washington Center
09:00 38.9906 -77.7200 250° West 390 449 23,700 1,620 Climbing Washington Center
09:01 38.9503 -77.8658 250° West 390 449 25,500 1,560 Climbing Washington Center
09:02 38.9144 -77.9900 250° West 405 466 26,900 1,680 Climbing Washington Center
09:03 38.8764 -78.1247 250° West 405 466 28,900 1,680 Climbing Washington Center
09:04 38.8483 -78.2625 255° West 405 466 30,300 1,260 Climbing Washington Center
09:05 38.8494 -78.3983 271° West 384 442 31,500 1,500 Climbing Washington Center
09:06 38.8481 -78.5369 269° West 391 450 33,300 1,500 Climbing Washington Center
09:07 38.8469 -78.6675 269° West 385 443 34,600 1,080 Climbing Washington Center
09:08 38.8436 -78.8008 268° West 380 437 35,500 660 Climbing Washington Center
09:09 38.8419 -78.9339 269° West 380 437 36,000 240 Climbing Washington Center
09:10 38.8381 -79.0669 268° West 380 437 36,000  Level Washington Center
09:11 38.8342 -79.2000 268° West 380 437 36,000  Level Washington Center
09:12 38.8111 -79.3403 258° West 391 450 36,000  Level Washington Center
09:13 38.7883 -79.4694 257° West 391 450 36,000  Level Washington Center
09:14 38.7667 -79.6203 260° West 391 450 36,000  Level Washington Center
09:15 38.7433 -79.7547 257° West 391 450 36,000  Level Washington Center
09:17 38.6889 -80.0261 256° West 387 445 36,000  Level Indianapolis Center
09:18 38.6644 -80.1603 257° West 386 444 36,000  Level Indianapolis Center
09:19 38.6389 -80.2931 256° West 384 442 36,000  Level Indianapolis Center
09:20 38.6133 -80.4272 256° West 386 444 36,000  Level Indianapolis Center
09:21 38.5881 -80.5608 256° West 386 444 36,000  Level Indianapolis Center
09:23 38.5622 -80.6950 256° West 387 445 36,000  Level Indianapolis Center
09:24 38.5364 -80.8297 256° West 390 449 36,000  Level Indianapolis Center
09:25 38.5108 -80.9628 256° West 386 444 36,000  Level Indianapolis Center
09:26 38.4839 -81.0975 256° West 388 447 36,000  Level Indianapolis Center
09:27 38.4575 -81.2328 256° West 389 448 36,000  Level Indianapolis Center
09:28 38.4306 -81.3697 256° West 392 451 36,000  Level Indianapolis Center
09:29 38.3981 -81.5303 256° West 388 447 36,000  Level Indianapolis Center
09:30 38.3722 -81.6644 256° West 386 444 36,000  Level Indianapolis Center
09:31 38.3439 -81.7967 255° West 384 442 36,000  Level Indianapolis Center
09:32 38.3067 -81.9253 250° West 385 443 36,000  Level Indianapolis Center
09:33 38.2694 -82.0544 250° West 387 445 36,000  Level Indianapolis Center
09:34 38.2333 -82.1839 250° West 387 445 36,000  Level Indianapolis Center
09:35 38.1978 -82.3122 251° West 385 443 36,000  Level Indianapolis Center
09:36 38.1611 -82.4414 250° West 387 445 36,000  Level Indianapolis Center
09:37 38.1181 -82.5908 250° West 383 441 36,000  Level Indianapolis Center
09:38 38.0814 -82.7164 250° West 381 438 36,000  Level Indianapolis Center
09:39 38.0436 -82.8458 250° West 388 447 36,000  Level Indianapolis Center
09:40 38.0064 -82.9733 250° West 386 444 36,000  Level Indianapolis Center
09:41 37.9697 -83.1014 250° West 387 445 36,000  Level Indianapolis Center
09:42 37.9492 -83.2347 259° West 385 443 36,000 -300 Level Indianapolis Center
09:43 37.9292 -83.3889 261° West 382 440 35,500 -780 Descending Indianapolis Center
09:44 37.9128 -83.5233 261° West 385 443 34,500 -960 Descending Indianapolis Center
09:45 37.8972 -83.6567 262° West 384 442 33,600 -960 Descending Indianapolis Center
09:46 37.8653 -83.7847 252° West 388 447 32,600 -840 Descending Indianapolis Center
09:47 37.7922 -83.8906 229° Southwest 394 453 32,000 -300 Descending Indianapolis Center
09:48 37.7203 -83.9983 230° Southwest 400 460 32,000  Level Indianapolis Center
09:49 37.6353 -84.1250 230° Southwest 403 464 32,000  Level Indianapolis Center
09:50 37.5625 -84.2325 230° Southwest 402 463 32,000  Level Indianapolis Center
09:51 37.4886 -84.3408 229° Southwest 405 466 32,000  Level Indianapolis Center
09:52 37.4142 -84.4483 229° Southwest 407 468 32,000  Level Indianapolis Center
09:53 37.3392 -84.5586 229° Southwest 414 476 32,000 -360 Level Indianapolis Center
09:54 37.2653 -84.6650 229° Southwest 407 468 31,300 -960 Descending Indianapolis Center
09:55 37.1775 -84.7908 229° Southwest 410 472 30,100 -1,020 Descending Indianapolis Center
09:56 37.1047 -84.8989 230° Southwest 408 470 29,200 -960 Descending Indianapolis Center
09:57 37.0314 -85.0036 229° Southwest 405 466 28,200 -960 Descending Indianapolis Center
09:59 36.9569 -85.1089 229° Southwest 405 466 27,300 -960 Descending Indianapolis Center
10:00 36.8839 -85.2142 229° Southwest 404 465 26,300 -1,260 Descending Indianapolis Center
10:01 36.8103 -85.3178 228° Southwest 401 461 24,800 -1,800 Descending Indianapolis Center
10:01 36.7378 -85.4222 229° Southwest 404 465 22,900 -1,440 Descending Memphis Center
10:02 36.6919 -85.5311 242° Southwest 369 425 22,200 -480 Descending Memphis Center
10:03 36.6397 -85.6325 237° Southwest 358 412 22,000 -420 Descending Memphis Center
10:04 36.5875 -85.7414 239° Southwest 358 412 21,400 -1,620 Descending Memphis Center
10:05 36.5414 -85.8475 242° Southwest 358 412 18,800 -2,340 Descending Memphis Center
10:06 36.4931 -85.9483 239° Southwest 353 406 16,800 -1,980 Descending Memphis Center
10:07 36.4503 -86.0383 239° Southwest 347 399 14,900 -2,040 Descending Memphis Center
10:08 36.4017 -86.1389 239° Southwest 347 399 12,800 -2,100 Descending Memphis Center
10:09 36.3547 -86.2342 239° Southwest 342 394 10,700 -1,440 Descending Memphis Center
10:10 36.3117 -86.3211 238° Southwest 318 366 10,000 -1,140 Descending Memphis Center
10:11 36.2728 -86.4031 240° Southwest 291 335 8,500 -1,500 Descending Memphis Center
10:12 36.2297 -86.4925 239° Southwest 286 329 7,000 -1,260 Descending Memphis Center
10:13 36.1728 -86.5389 213° Southwest 251 289 6,000 -900 Descending Memphis Center
10:14 36.1108 -86.5622 197° South 245 282 5,200 -960 Descending Memphis Center
10:15 36.0531 -86.5831 196° South 225 259 4,200 -1,200 Descending Memphis Center
10:16 36.0042 -86.6161 209° Southwest 214 246 2,900 -900 Descending Memphis Center
10:17 36.0267 -86.6742 296° West 143 165 2,500 -600 Descending Memphis Center
10:18 36.0686 -86.6850 348° North 120 138 1,700 -900 Descending Memphis Center
10:19 36.1100 -86.6678 19° North 120 138 700 -1,020 Descending Memphis Center
10:22 36.1167 -86.6667 287° West  Level FlightAware Approximate
10:29 36.1245 -86.6782 287° West  Level Estimated
10:30 36.1245 -86.6782 287° West  Level Estimated
10:31 36.1245 -86.6782 287° West  Level Estimated
10:32 36.1245 -86.6782 287° West  Level Estimated
10:33 36.1245 -86.6782 287° West  Level Estimated
10:34 36.1245 -86.6782 287° West  Level Estimated